createdAt,value
2017-12-16T00:01:26.350Z,29.0
2017-12-16T00:11:26.675Z,29.2
2017-12-16T00:21:26.222Z,28.6
2017-12-16T00:31:26.426Z,28.2
2017-12-16T00:41:27.327Z,27.1
2017-12-16T00:51:27.072Z,28.2
2017-12-16T01:01:29.283Z,32.2
2017-12-16T01:11:26.471Z,31.2
2017-12-16T01:21:26.690Z,30.8
2017-12-16T01:31:26.559Z,31.7
2017-12-16T01:41:26.578Z,32.4
2017-12-16T01:51:26.652Z,34.5
2017-12-16T02:01:26.530Z,33.5
2017-12-16T02:11:26.468Z,35.2
2017-12-16T02:21:28.975Z,35.4
2017-12-16T02:31:28.039Z,35.7
2017-12-16T02:41:28.391Z,35.6
2017-12-16T02:51:28.363Z,37.0
2017-12-16T03:01:26.697Z,38.9
2017-12-16T03:11:27.158Z,40.1
2017-12-16T03:21:25.719Z,38.1
2017-12-16T03:31:28.614Z,38.8
2017-12-16T03:41:28.521Z,38.7
2017-12-16T03:51:25.971Z,33.6
2017-12-16T04:01:27.108Z,33.4
2017-12-16T04:11:26.839Z,33.5
2017-12-16T04:21:27.718Z,32.4
2017-12-16T04:31:27.211Z,29.0
2017-12-16T04:41:29.308Z,30.2
2017-12-16T04:51:26.237Z,32.1
2017-12-16T05:01:27.567Z,32.5
2017-12-16T05:11:25.996Z,33.0
2017-12-16T05:21:27.315Z,34.3
2017-12-16T05:31:26.335Z,33.2
2017-12-16T05:41:26.635Z,34.9
2017-12-16T05:51:26.290Z,37.9
2017-12-16T06:01:25.631Z,40.1
2017-12-16T06:11:26.553Z,40.1
2017-12-16T06:21:26.216Z,40.3
2017-12-16T06:31:26.593Z,39.2
2017-12-16T06:41:26.016Z,37.2
2017-12-16T06:51:28.172Z,34.8
2017-12-16T07:01:26.650Z,34.2
2017-12-16T07:11:25.763Z,37.1
2017-12-16T07:21:26.410Z,35.9
2017-12-16T07:31:26.632Z,33.1
2017-12-16T07:41:27.903Z,31.5
2017-12-16T07:51:26.097Z,36.7
2017-12-16T08:01:26.855Z,31.3
2017-12-16T08:11:27.181Z,30.4
2017-12-16T08:21:26.591Z,29.4
2017-12-16T08:31:26.336Z,30.1
2017-12-16T08:41:25.869Z,29.0
2017-12-16T08:51:28.263Z,26.4
2017-12-16T09:01:27.174Z,26.5
2017-12-16T09:11:26.885Z,26.7
2017-12-16T09:21:26.519Z,24.1
2017-12-16T09:31:26.096Z,27.3
2017-12-16T09:43:37.905Z,28.4
2017-12-16T09:51:26.152Z,24.9
2017-12-16T10:01:26.356Z,24.8
2017-12-16T10:11:26.250Z,19.0
2017-12-16T10:21:27.629Z,22.5
2017-12-16T10:31:25.838Z,23.4
2017-12-16T10:41:27.346Z,18.6
2017-12-16T10:51:26.327Z,18.0
2017-12-16T11:01:26.671Z,18.8
2017-12-16T11:11:26.837Z,20.0
2017-12-16T11:21:27.574Z,17.8
2017-12-16T11:31:25.988Z,17.9
2017-12-16T11:41:27.753Z,15.3
2017-12-16T11:51:28.385Z,18.8
2017-12-16T12:01:25.611Z,16.5
2017-12-16T12:11:26.432Z,23.7
2017-12-16T12:21:26.558Z,31.7
2017-12-16T12:31:26.781Z,37.7
2017-12-16T12:41:26.500Z,34.4
2017-12-16T12:51:26.266Z,35.8
2017-12-16T13:01:27.994Z,36.2
2017-12-16T13:11:26.162Z,43.8
2017-12-16T13:21:25.852Z,40.3
2017-12-16T13:31:27.430Z,26.7
2017-12-16T13:41:25.913Z,39.3
2017-12-16T13:51:26.868Z,40.2
2017-12-16T14:01:26.483Z,39.8
2017-12-16T14:11:25.689Z,36.6
2017-12-16T14:21:27.278Z,33.3
2017-12-16T14:31:26.442Z,31.4
2017-12-16T14:41:25.842Z,24.6
2017-12-16T14:51:27.578Z,20.7
2017-12-16T15:01:26.901Z,22.3
2017-12-16T15:11:26.831Z,23.7
2017-12-16T15:21:28.314Z,25.9
2017-12-16T15:31:26.318Z,32.8
2017-12-16T15:41:25.481Z,32.9
2017-12-16T15:51:28.525Z,34.9
2017-12-16T16:01:26.550Z,38.0
2017-12-16T16:11:26.633Z,39.4
2017-12-16T16:21:26.206Z,41.5
2017-12-16T16:31:27.521Z,39.7
2017-12-16T16:41:26.329Z,39.0
2017-12-16T16:51:27.602Z,40.2
2017-12-16T17:01:26.724Z,43.9
2017-12-16T17:11:26.593Z,85.7
2017-12-16T17:21:25.854Z,52.1
2017-12-16T17:31:26.728Z,52.1
2017-12-16T17:41:26.930Z,60.0
2017-12-16T17:51:26.725Z,72.3
2017-12-16T18:01:26.752Z,78.7
2017-12-16T18:11:27.927Z,81.0
2017-12-16T18:21:28.455Z,87.8
2017-12-16T18:31:25.832Z,92.9
2017-12-16T18:41:26.218Z,80.1
2017-12-16T18:51:26.875Z,77.1
2017-12-16T19:01:26.239Z,74.0
2017-12-16T19:11:28.134Z,70.7
2017-12-16T19:21:27.996Z,70.4
2017-12-16T19:31:26.361Z,66.2
2017-12-16T19:41:27.253Z,59.2
2017-12-16T19:51:27.103Z,58.2
2017-12-16T20:01:26.491Z,57.2
2017-12-16T20:11:25.586Z,55.3
2017-12-16T20:21:26.554Z,56.1
2017-12-16T20:31:26.336Z,53.3
2017-12-16T20:41:25.697Z,52.1
2017-12-16T20:51:25.913Z,51.9
2017-12-16T21:01:26.385Z,57.7
2017-12-16T21:11:27.533Z,56.7
2017-12-16T21:21:25.840Z,57.0
2017-12-16T21:31:28.085Z,55.7
2017-12-16T21:41:27.417Z,56.9
2017-12-16T21:51:25.609Z,52.9
2017-12-16T22:01:25.910Z,52.3
2017-12-16T22:11:26.776Z,57.3
2017-12-16T22:21:26.220Z,58.1
2017-12-16T22:31:27.934Z,55.7
2017-12-16T22:41:26.022Z,56.6
2017-12-16T22:51:27.371Z,54.2
2017-12-16T23:01:26.505Z,54.1
2017-12-16T23:11:26.395Z,57.1
2017-12-16T23:21:26.366Z,47.9
2017-12-16T23:31:25.744Z,45.0
2017-12-16T23:41:26.133Z,41.9
2017-12-16T23:51:27.817Z,44.1
